sensor_id;sensor_type;location;lat;lon;timestamp;P1;P2;P0
36453;PMS5003;22478;51.740;-1.314;2023-02-05T00:00:44;78;75;
36453;PMS5003;22478;51.740;-1.314;2023-02-05T00:03:12;82;82;
36453;PMS5003;22478;51.740;-1.314;2023-02-05T00:05:39;82;80;
36453;PMS5003;22478;51.740;-1.314;2023-02-05T00:08:06;94;94;
36453;PMS5003;22478;51.740;-1.314;2023-02-05T00:10:34;102;102;
36453;PMS5003;22478;51.740;-1.314;2023-02-05T00:13:01;92;91;
36453;PMS5003;22478;51.740;-1.314;2023-02-05T00:15:29;82;79;
36453;PMS5003;22478;51.740;-1.314;2023-02-05T00:17:56;75;72;
36453;PMS5003;22478;51.740;-1.314;2023-02-05T00:20:24;71;71;
36453;PMS5003;22478;51.740;-1.314;2023-02-05T00:22:50;77;76;
36453;PMS5003;22478;51.740;-1.314;2023-02-05T00:25:18;67;67;
36453;PMS5003;22478;51.740;-1.314;2023-02-05T00:27:45;67;65;
36453;PMS5003;22478;51.740;-1.314;2023-02-05T00:30:12;67;66;
36453;PMS5003;22478;51.740;-1.314;2023-02-05T00:32:39;68;65;
36453;PMS5003;22478;51.740;-1.314;2023-02-05T00:35:07;49;46;
36453;PMS5003;22478;51.740;-1.314;2023-02-05T00:37:34;69;66;
36453;PMS5003;22478;51.740;-1.314;2023-02-05T00:40:02;74;70;
36453;PMS5003;22478;51.740;-1.314;2023-02-05T00:42:30;45;43;
36453;PMS5003;22478;51.740;-1.314;2023-02-05T00:44:58;68;67;
36453;PMS5003;22478;51.740;-1.314;2023-02-05T00:47:25;49;48;
36453;PMS5003;22478;51.740;-1.314;2023-02-05T00:49:52;55;53;
36453;PMS5003;22478;51.740;-1.314;2023-02-05T00:52:19;51;51;
36453;PMS5003;22478;51.740;-1.314;2023-02-05T00:54:47;63;59;
36453;PMS5003;22478;51.740;-1.314;2023-02-05T00:57:14;85;82;
36453;PMS5003;22478;51.740;-1.314;2023-02-05T00:59:41;61;61;
36453;PMS5003;22478;51.740;-1.314;2023-02-05T01:02:08;73;70;
36453;PMS5003;22478;51.740;-1.314;2023-02-05T01:04:35;79;73;
36453;PMS5003;22478;51.740;-1.314;2023-02-05T01:07:03;76;70;
36453;PMS5003;22478;51.740;-1.314;2023-02-05T01:09:30;91;84;
36453;PMS5003;22478;51.740;-1.314;2023-02-05T01:11:58;69;63;
36453;PMS5003;22478;51.740;-1.314;2023-02-05T01:14:25;86;79;
36453;PMS5003;22478;51.740;-1.314;2023-02-05T01:16:52;110;97;
36453;PMS5003;22478;51.740;-1.314;2023-02-05T01:19:20;117;110;
36453;PMS5003;22478;51.740;-1.314;2023-02-05T01:21:47;109;104;
36453;PMS5003;22478;51.740;-1.314;2023-02-05T01:24:14;101;94;
36453;PMS5003;22478;51.740;-1.314;2023-02-05T01:26:42;97;89;
36453;PMS5003;22478;51.740;-1.314;2023-02-05T01:29:09;111;103;
36453;PMS5003;22478;51.740;-1.314;2023-02-05T01:31:36;132;122;
36453;PMS5003;22478;51.740;-1.314;2023-02-05T01:34:04;126;117;
36453;PMS5003;22478;51.740;-1.314;2023-02-05T01:36:31;128;119;
36453;PMS5003;22478;51.740;-1.314;2023-02-05T01:38:59;104;97;
36453;PMS5003;22478;51.740;-1.314;2023-02-05T01:41:26;87;86;
36453;PMS5003;22478;51.740;-1.314;2023-02-05T01:44:03;89;80;
36453;PMS5003;22478;51.740;-1.314;2023-02-05T01:46:33;80;70;
36453;PMS5003;22478;51.740;-1.314;2023-02-05T01:49:01;84;77;
36453;PMS5003;22478;51.740;-1.314;2023-02-05T01:51:30;92;91;
36453;PMS5003;22478;51.740;-1.314;2023-02-05T01:53:59;85;77;
36453;PMS5003;22478;51.740;-1.314;2023-02-05T01:56:28;110;102;
36453;PMS5003;22478;51.740;-1.314;2023-02-05T01:59:01;87;84;
36453;PMS5003;22478;51.740;-1.314;2023-02-05T02:01:32;86;81;
36453;PMS5003;22478;51.740;-1.314;2023-02-05T02:04:01;90;84;
36453;PMS5003;22478;51.740;-1.314;2023-02-05T02:06:31;85;77;
36453;PMS5003;22478;51.740;-1.314;2023-02-05T02:08:59;93;85;
36453;PMS5003;22478;51.740;-1.314;2023-02-05T02:11:29;92;90;
36453;PMS5003;22478;51.740;-1.314;2023-02-05T02:14:00;107;94;
36453;PMS5003;22478;51.740;-1.314;2023-02-05T02:16:32;99;89;
36453;PMS5003;22478;51.740;-1.314;2023-02-05T02:19:01;98;88;
36453;PMS5003;22478;51.740;-1.314;2023-02-05T02:21:36;96;95;
36453;PMS5003;22478;51.740;-1.314;2023-02-05T02:24:31;110;102;
36453;PMS5003;22478;51.740;-1.314;2023-02-05T02:27:13;101;91;
36453;PMS5003;22478;51.740;-1.314;2023-02-05T02:29:54;94;84;
36453;PMS5003;22478;51.740;-1.314;2023-02-05T02:32:26;98;90;
36453;PMS5003;22478;51.740;-1.314;2023-02-05T02:35:02;105;94;
36453;PMS5003;22478;51.740;-1.314;2023-02-05T02:37:34;103;93;
36453;PMS5003;22478;51.740;-1.314;2023-02-05T02:40:10;101;86;
36453;PMS5003;22478;51.740;-1.314;2023-02-05T02:42:44;99;86;
36453;PMS5003;22478;51.740;-1.314;2023-02-05T02:45:15;100;92;
36453;PMS5003;22478;51.740;-1.314;2023-02-05T02:47:47;95;83;
36453;PMS5003;22478;51.740;-1.314;2023-02-05T02:50:20;90;85;
36453;PMS5003;22478;51.740;-1.314;2023-02-05T02:52:51;107;94;
36453;PMS5003;22478;51.740;-1.314;2023-02-05T02:55:21;120;105;
36453;PMS5003;22478;51.740;-1.314;2023-02-05T02:57:50;112;101;
36453;PMS5003;22478;51.740;-1.314;2023-02-05T03:00:19;96;95;
36453;PMS5003;22478;51.740;-1.314;2023-02-05T03:02:49;113;103;
36453;PMS5003;22478;51.740;-1.314;2023-02-05T03:05:21;129;120;
36453;PMS5003;22478;51.740;-1.314;2023-02-05T03:07:51;138;127;
36453;PMS5003;22478;51.740;-1.314;2023-02-05T03:10:24;149;137;
36453;PMS5003;22478;51.740;-1.314;2023-02-05T03:12:58;126;124;
36453;PMS5003;22478;51.740;-1.314;2023-02-05T03:15:26;138;124;
36453;PMS5003;22478;51.740;-1.314;2023-02-05T03:17:53;160;147;
36453;PMS5003;22478;51.740;-1.314;2023-02-05T03:20:23;142;126;
36453;PMS5003;22478;51.740;-1.314;2023-02-05T03:22:53;137;124;
36453;PMS5003;22478;51.740;-1.314;2023-02-05T03:25:21;147;132;
36453;PMS5003;22478;51.740;-1.314;2023-02-05T03:27:51;129;114;
36453;PMS5003;22478;51.740;-1.314;2023-02-05T03:30:20;144;130;
36453;PMS5003;22478;51.740;-1.314;2023-02-05T03:32:52;144;129;
36453;PMS5003;22478;51.740;-1.314;2023-02-05T03:35:28;161;154;
36453;PMS5003;22478;51.740;-1.314;2023-02-05T03:38:05;158;143;
36453;PMS5003;22478;51.740;-1.314;2023-02-05T03:40:47;154;143;
36453;PMS5003;22478;51.740;-1.314;2023-02-05T03:43:23;167;162;
36453;PMS5003;22478;51.740;-1.314;2023-02-05T03:45:58;142;127;
36453;PMS5003;22478;51.740;-1.314;2023-02-05T03:48:38;143;130;
36453;PMS5003;22478;51.740;-1.314;2023-02-05T03:51:19;126;120;
36453;PMS5003;22478;51.740;-1.314;2023-02-05T03:53:57;146;134;
36453;PMS5003;22478;51.740;-1.314;2023-02-05T03:56:32;115;104;
36453;PMS5003;22478;51.740;-1.314;2023-02-05T03:59:05;131;119;
36453;PMS5003;22478;51.740;-1.314;2023-02-05T04:01:34;105;91;
36453;PMS5003;22478;51.740;-1.314;2023-02-05T04:04:02;93;80;
36453;PMS5003;22478;51.740;-1.314;2023-02-05T04:06:29;102;90;
36453;PMS5003;22478;51.740;-1.314;2023-02-05T04:08:56;101;92;
36453;PMS5003;22478;51.740;-1.314;2023-02-05T04:11:24;106;91;
36453;PMS5003;22478;51.740;-1.314;2023-02-05T04:13:51;128;113;
36453;PMS5003;22478;51.740;-1.314;2023-02-05T04:16:18;163;151;
36453;PMS5003;22478;51.740;-1.314;2023-02-05T04:18:46;146;140;
36453;PMS5003;22478;51.740;-1.314;2023-02-05T04:21:13;209;206;
36453;PMS5003;22478;51.740;-1.314;2023-02-05T04:23:40;235;231;
36453;PMS5003;22478;51.740;-1.314;2023-02-05T04:26:08;168;161;
36453;PMS5003;22478;51.740;-1.314;2023-02-05T04:28:34;176;169;
36453;PMS5003;22478;51.740;-1.314;2023-02-05T04:31:05;169;157;
36453;PMS5003;22478;51.740;-1.314;2023-02-05T04:33:33;173;161;
36453;PMS5003;22478;51.740;-1.314;2023-02-05T04:36:00;168;150;
36453;PMS5003;22478;51.740;-1.314;2023-02-05T04:38:27;179;163;
36453;PMS5003;22478;51.740;-1.314;2023-02-05T04:40:54;167;156;
36453;PMS5003;22478;51.740;-1.314;2023-02-05T04:43:22;180;174;
36453;PMS5003;22478;51.740;-1.314;2023-02-05T04:45:49;183;176;
36453;PMS5003;22478;51.740;-1.314;2023-02-05T04:48:17;180;171;
36453;PMS5003;22478;51.740;-1.314;2023-02-05T04:50:45;166;148;
36453;PMS5003;22478;51.740;-1.314;2023-02-05T04:53:13;183;179;
36453;PMS5003;22478;51.740;-1.314;2023-02-05T04:55:41;206;200;
36453;PMS5003;22478;51.740;-1.314;2023-02-05T04:58:08;203;199;
36453;PMS5003;22478;51.740;-1.314;2023-02-05T05:00:35;227;223;
36453;PMS5003;22478;51.740;-1.314;2023-02-05T05:03:02;196;188;
36453;PMS5003;22478;51.740;-1.314;2023-02-05T05:05:29;211;206;
36453;PMS5003;22478;51.740;-1.314;2023-02-05T05:07:58;208;204;
36453;PMS5003;22478;51.740;-1.314;2023-02-05T05:10:25;208;199;
36453;PMS5003;22478;51.740;-1.314;2023-02-05T05:12:52;225;219;
36453;PMS5003;22478;51.740;-1.314;2023-02-05T05:15:20;184;177;
36453;PMS5003;22478;51.740;-1.314;2023-02-05T05:17:47;170;162;
36453;PMS5003;22478;51.740;-1.314;2023-02-05T05:20:14;190;179;
36453;PMS5003;22478;51.740;-1.314;2023-02-05T05:22:42;177;168;
36453;PMS5003;22478;51.740;-1.314;2023-02-05T05:25:09;171;156;
36453;PMS5003;22478;51.740;-1.314;2023-02-05T05:27:37;150;148;
36453;PMS5003;22478;51.740;-1.314;2023-02-05T05:30:05;150;150;
36453;PMS5003;22478;51.740;-1.314;2023-02-05T05:32:33;177;161;
36453;PMS5003;22478;51.740;-1.314;2023-02-05T05:35:00;164;161;
36453;PMS5003;22478;51.740;-1.314;2023-02-05T05:37:27;214;204;
36453;PMS5003;22478;51.740;-1.314;2023-02-05T05:39:54;185;171;
36453;PMS5003;22478;51.740;-1.314;2023-02-05T05:42:22;193;179;
36453;PMS5003;22478;51.740;-1.314;2023-02-05T05:44:49;179;179;
36453;PMS5003;22478;51.740;-1.314;2023-02-05T05:47:16;177;170;
36453;PMS5003;22478;51.740;-1.314;2023-02-05T05:49:43;181;162;
36453;PMS5003;22478;51.740;-1.314;2023-02-05T05:52:11;307;305;
36453;PMS5003;22478;51.740;-1.314;2023-02-05T05:54:39;192;186;
36453;PMS5003;22478;51.740;-1.314;2023-02-05T05:57:06;188;183;
36453;PMS5003;22478;51.740;-1.314;2023-02-05T05:59:34;177;169;
36453;PMS5003;22478;51.740;-1.314;2023-02-05T06:02:02;186;179;
36453;PMS5003;22478;51.740;-1.314;2023-02-05T06:04:30;187;176;
36453;PMS5003;22478;51.740;-1.314;2023-02-05T06:06:57;177;171;
36453;PMS5003;22478;51.740;-1.314;2023-02-05T06:09:24;185;176;
36453;PMS5003;22478;51.740;-1.314;2023-02-05T06:11:52;178;171;
36453;PMS5003;22478;51.740;-1.314;2023-02-05T06:14:19;182;175;
36453;PMS5003;22478;51.740;-1.314;2023-02-05T06:16:46;191;182;
36453;PMS5003;22478;51.740;-1.314;2023-02-05T06:19:13;201;189;
36453;PMS5003;22478;51.740;-1.314;2023-02-05T06:21:39;233;233;
36453;PMS5003;22478;51.740;-1.314;2023-02-05T06:24:07;210;208;
36453;PMS5003;22478;51.740;-1.314;2023-02-05T06:26:33;211;210;
36453;PMS5003;22478;51.740;-1.314;2023-02-05T06:29:01;208;202;
36453;PMS5003;22478;51.740;-1.314;2023-02-05T06:31:29;223;219;
36453;PMS5003;22478;51.740;-1.314;2023-02-05T06:33:57;229;227;
36453;PMS5003;22478;51.740;-1.314;2023-02-05T06:36:24;240;240;
36453;PMS5003;22478;51.740;-1.314;2023-02-05T06:38:51;212;211;
36453;PMS5003;22478;51.740;-1.314;2023-02-05T06:41:18;228;228;
36453;PMS5003;22478;51.740;-1.314;2023-02-05T06:43:46;412;411;
36453;PMS5003;22478;51.740;-1.314;2023-02-05T06:46:13;253;251;
36453;PMS5003;22478;51.740;-1.314;2023-02-05T06:48:40;277;274;
36453;PMS5003;22478;51.740;-1.314;2023-02-05T06:51:07;362;362;
36453;PMS5003;22478;51.740;-1.314;2023-02-05T06:53:34;245;240;
36453;PMS5003;22478;51.740;-1.314;2023-02-05T06:56:01;246;246;
36453;PMS5003;22478;51.740;-1.314;2023-02-05T06:58:28;378;376;
36453;PMS5003;22478;51.740;-1.314;2023-02-05T07:00:55;271;269;
36453;PMS5003;22478;51.740;-1.314;2023-02-05T07:03:22;227;222;
36453;PMS5003;22478;51.740;-1.314;2023-02-05T07:05:50;303;302;
36453;PMS5003;22478;51.740;-1.314;2023-02-05T07:08:17;262;260;
36453;PMS5003;22478;51.740;-1.314;2023-02-05T07:10:44;200;197;
36453;PMS5003;22478;51.740;-1.314;2023-02-05T07:13:11;388;385;
36453;PMS5003;22478;51.740;-1.314;2023-02-05T07:15:38;457;454;
36453;PMS5003;22478;51.740;-1.314;2023-02-05T07:18:05;289;289;
36453;PMS5003;22478;51.740;-1.314;2023-02-05T07:20:32;261;261;
36453;PMS5003;22478;51.740;-1.314;2023-02-05T07:23:00;212;209;
36453;PMS5003;22478;51.740;-1.314;2023-02-05T07:25:27;239;239;
36453;PMS5003;22478;51.740;-1.314;2023-02-05T07:27:55;275;275;
36453;PMS5003;22478;51.740;-1.314;2023-02-05T07:30:23;216;216;
36453;PMS5003;22478;51.740;-1.314;2023-02-05T07:32:50;299;299;
36453;PMS5003;22478;51.740;-1.314;2023-02-05T07:35:17;349;349;
36453;PMS5003;22478;51.740;-1.314;2023-02-05T07:37:44;343;342;
36453;PMS5003;22478;51.740;-1.314;2023-02-05T07:40:11;238;235;
36453;PMS5003;22478;51.740;-1.314;2023-02-05T07:42:39;196;192;
36453;PMS5003;22478;51.740;-1.314;2023-02-05T07:45:06;352;350;
36453;PMS5003;22478;51.740;-1.314;2023-02-05T07:47:34;354;352;
36453;PMS5003;22478;51.740;-1.314;2023-02-05T07:50:01;339;337;
36453;PMS5003;22478;51.740;-1.314;2023-02-05T07:52:29;345;341;
36453;PMS5003;22478;51.740;-1.314;2023-02-05T07:54:56;194;191;
36453;PMS5003;22478;51.740;-1.314;2023-02-05T07:57:23;159;144;
36453;PMS5003;22478;51.740;-1.314;2023-02-05T07:59:50;308;308;
36453;PMS5003;22478;51.740;-1.314;2023-02-05T08:02:17;307;305;
36453;PMS5003;22478;51.740;-1.314;2023-02-05T08:04:45;366;362;
36453;PMS5003;22478;51.740;-1.314;2023-02-05T08:07:12;391;389;
36453;PMS5003;22478;51.740;-1.314;2023-02-05T08:09:39;347;342;
36453;PMS5003;22478;51.740;-1.314;2023-02-05T08:12:07;290;289;
36453;PMS5003;22478;51.740;-1.314;2023-02-05T08:14:34;450;449;
36453;PMS5003;22478;51.740;-1.314;2023-02-05T08:17:03;453;453;
36453;PMS5003;22478;51.740;-1.314;2023-02-05T08:19:30;401;401;
36453;PMS5003;22478;51.740;-1.314;2023-02-05T08:21:57;353;349;
36453;PMS5003;22478;51.740;-1.314;2023-02-05T08:24:23;368;367;
36453;PMS5003;22478;51.740;-1.314;2023-02-05T08:26:51;262;260;
36453;PMS5003;22478;51.740;-1.314;2023-02-05T08:29:18;510;507;
36453;PMS5003;22478;51.740;-1.314;2023-02-05T08:31:45;308;308;
36453;PMS5003;22478;51.740;-1.314;2023-02-05T08:34:12;297;297;
36453;PMS5003;22478;51.740;-1.314;2023-02-05T08:36:40;256;252;
36453;PMS5003;22478;51.740;-1.314;2023-02-05T08:39:07;312;312;
36453;PMS5003;22478;51.740;-1.314;2023-02-05T08:41:35;323;323;
36453;PMS5003;22478;51.740;-1.314;2023-02-05T08:44:02;353;353;
36453;PMS5003;22478;51.740;-1.314;2023-02-05T08:46:30;326;325;
36453;PMS5003;22478;51.740;-1.314;2023-02-05T08:48:57;206;196;
36453;PMS5003;22478;51.740;-1.314;2023-02-05T08:51:25;199;183;
36453;PMS5003;22478;51.740;-1.314;2023-02-05T08:53:52;207;195;
36453;PMS5003;22478;51.740;-1.314;2023-02-05T08:56:20;211;201;
36453;PMS5003;22478;51.740;-1.314;2023-02-05T08:58:48;241;238;
36453;PMS5003;22478;51.740;-1.314;2023-02-05T09:01:15;243;239;
36453;PMS5003;22478;51.740;-1.314;2023-02-05T09:03:44;229;228;
36453;PMS5003;22478;51.740;-1.314;2023-02-05T09:06:13;289;286;
36453;PMS5003;22478;51.740;-1.314;2023-02-05T09:08:41;362;361;
36453;PMS5003;22478;51.740;-1.314;2023-02-05T09:11:08;314;314;
36453;PMS5003;22478;51.740;-1.314;2023-02-05T09:13:35;274;274;
36453;PMS5003;22478;51.740;-1.314;2023-02-05T09:16:03;303;299;
36453;PMS5003;22478;51.740;-1.314;2023-02-05T09:18:30;281;277;
36453;PMS5003;22478;51.740;-1.314;2023-02-05T09:20:57;401;398;
36453;PMS5003;22478;51.740;-1.314;2023-02-05T09:23:25;317;315;
36453;PMS5003;22478;51.740;-1.314;2023-02-05T09:25:52;308;307;
36453;PMS5003;22478;51.740;-1.314;2023-02-05T09:28:18;340;337;
36453;PMS5003;22478;51.740;-1.314;2023-02-05T09:30:46;248;248;
36453;PMS5003;22478;51.740;-1.314;2023-02-05T09:33:13;306;301;
36453;PMS5003;22478;51.740;-1.314;2023-02-05T09:35:40;226;226;
36453;PMS5003;22478;51.740;-1.314;2023-02-05T09:38:08;206;205;
36453;PMS5003;22478;51.740;-1.314;2023-02-05T09:40:39;302;302;
36453;PMS5003;22478;51.740;-1.314;2023-02-05T09:43:17;288;286;
36453;PMS5003;22478;51.740;-1.314;2023-02-05T09:45:54;221;221;
36453;PMS5003;22478;51.740;-1.314;2023-02-05T09:48:34;278;275;
36453;PMS5003;22478;51.740;-1.314;2023-02-05T09:51:10;192;189;
36453;PMS5003;22478;51.740;-1.314;2023-02-05T09:53:39;240;237;
36453;PMS5003;22478;51.740;-1.314;2023-02-05T09:56:10;227;220;
36453;PMS5003;22478;51.740;-1.314;2023-02-05T09:58:40;222;216;
36453;PMS5003;22478;51.740;-1.314;2023-02-05T10:01:12;213;198;
36453;PMS5003;22478;51.740;-1.314;2023-02-05T10:03:47;195;180;
36453;PMS5003;22478;51.740;-1.314;2023-02-05T10:06:28;175;162;
36453;PMS5003;22478;51.740;-1.314;2023-02-05T10:09:06;160;147;
36453;PMS5003;22478;51.740;-1.314;2023-02-05T10:11:45;151;149;
36453;PMS5003;22478;51.740;-1.314;2023-02-05T10:14:19;91;77;
36453;PMS5003;22478;51.740;-1.314;2023-02-05T10:17:04;54;46;
36453;PMS5003;22478;51.740;-1.314;2023-02-05T10:19:55;7;7;
36453;PMS5003;22478;51.740;-1.314;2023-02-05T10:22:35;3;3;
36453;PMS5003;22478;51.740;-1.314;2023-02-05T10:25:47;4;4;
36453;PMS5003;22478;51.740;-1.314;2023-02-05T10:28:30;4;2;
36453;PMS5003;22478;51.740;-1.314;2023-02-05T10:31:16;4;4;
36453;PMS5003;22478;51.740;-1.314;2023-02-05T10:33:50;7;4;
36453;PMS5003;22478;51.740;-1.314;2023-02-05T10:36:19;3;3;
36453;PMS5003;22478;51.740;-1.314;2023-02-05T10:38:49;3;3;
36453;PMS5003;22478;51.740;-1.314;2023-02-05T10:41:21;4;3;
36453;PMS5003;22478;51.740;-1.314;2023-02-05T10:43:56;5;3;
36453;PMS5003;22478;51.740;-1.314;2023-02-05T10:46:31;4;3;
36453;PMS5003;22478;51.740;-1.314;2023-02-05T10:49:07;3;3;
36453;PMS5003;22478;51.740;-1.314;2023-02-05T10:51:39;4;4;
36453;PMS5003;22478;51.740;-1.314;2023-02-05T10:54:14;7;2;
36453;PMS5003;22478;51.740;-1.314;2023-02-05T10:56:46;2;2;
36453;PMS5003;22478;51.740;-1.314;2023-02-05T10:59:16;5;5;
36453;PMS5003;22478;51.740;-1.314;2023-02-05T11:01:49;5;4;
36453;PMS5003;22478;51.740;-1.314;2023-02-05T11:04:18;6;3;
36453;PMS5003;22478;51.740;-1.314;2023-02-05T11:06:58;8;6;
36453;PMS5003;22478;51.740;-1.314;2023-02-05T11:09:28;5;4;
36453;PMS5003;22478;51.740;-1.314;2023-02-05T11:11:57;6;3;
36453;PMS5003;22478;51.740;-1.314;2023-02-05T11:14:28;4;4;
36453;PMS5003;22478;51.740;-1.314;2023-02-05T11:16:59;4;1;
36453;PMS5003;22478;51.740;-1.314;2023-02-05T11:19:32;3;2;
36453;PMS5003;22478;51.740;-1.314;2023-02-05T11:22:05;6;4;
36453;PMS5003;22478;51.740;-1.314;2023-02-05T11:24:50;3;3;
36453;PMS5003;22478;51.740;-1.314;2023-02-05T11:27:31;4;3;
36453;PMS5003;22478;51.740;-1.314;2023-02-05T11:30:14;3;2;
36453;PMS5003;22478;51.740;-1.314;2023-02-05T11:32:44;5;3;
36453;PMS5003;22478;51.740;-1.314;2023-02-05T11:35:18;3;3;
36453;PMS5003;22478;51.740;-1.314;2023-02-05T11:37:47;2;2;
36453;PMS5003;22478;51.740;-1.314;2023-02-05T11:40:26;2;2;
36453;PMS5003;22478;51.740;-1.314;2023-02-05T11:42:57;6;5;
36453;PMS5003;22478;51.740;-1.314;2023-02-05T11:45:28;10;5;
36453;PMS5003;22478;51.740;-1.314;2023-02-05T11:47:59;11;9;
36453;PMS5003;22478;51.740;-1.314;2023-02-05T11:50:29;10;5;
36453;PMS5003;22478;51.740;-1.314;2023-02-05T11:53:04;7;2;
36453;PMS5003;22478;51.740;-1.314;2023-02-05T11:55:39;2;2;
36453;PMS5003;22478;51.740;-1.314;2023-02-05T11:58:19;4;3;
36453;PMS5003;22478;51.740;-1.314;2023-02-05T12:00:51;3;2;
36453;PMS5003;22478;51.740;-1.314;2023-02-05T12:03:21;7;3;
36453;PMS5003;22478;51.740;-1.314;2023-02-05T12:05:50;2;2;
36453;PMS5003;22478;51.740;-1.314;2023-02-05T12:08:24;4;2;
36453;PMS5003;22478;51.740;-1.314;2023-02-05T12:11:00;58;48;
36453;PMS5003;22478;51.740;-1.314;2023-02-05T12:13:43;38;27;
36453;PMS5003;22478;51.740;-1.314;2023-02-05T12:16:25;6;6;
36453;PMS5003;22478;51.740;-1.314;2023-02-05T12:19:03;4;2;
36453;PMS5003;22478;51.740;-1.314;2023-02-05T12:21:41;2;2;
36453;PMS5003;22478;51.740;-1.314;2023-02-05T12:24:18;7;6;
36453;PMS5003;22478;51.740;-1.314;2023-02-05T12:27:01;15;10;
36453;PMS5003;22478;51.740;-1.314;2023-02-05T12:29:43;1;1;
36453;PMS5003;22478;51.740;-1.314;2023-02-05T12:32:25;13;11;
36453;PMS5003;22478;51.740;-1.314;2023-02-05T12:35:07;3;1;
36453;PMS5003;22478;51.740;-1.314;2023-02-05T12:37:47;3;1;
36453;PMS5003;22478;51.740;-1.314;2023-02-05T12:40:29;6;1;
36453;PMS5003;22478;51.740;-1.314;2023-02-05T12:43:07;3;3;
36453;PMS5003;22478;51.740;-1.314;2023-02-05T12:45:50;3;2;
36453;PMS5003;22478;51.740;-1.314;2023-02-05T12:48:25;2;2;
36453;PMS5003;22478;51.740;-1.314;2023-02-05T12:51:08;1;1;
36453;PMS5003;22478;51.740;-1.314;2023-02-05T12:53:51;1;1;
36453;PMS5003;22478;51.740;-1.314;2023-02-05T12:56:30;2;2;
36453;PMS5003;22478;51.740;-1.314;2023-02-05T12:59:10;4;3;
36453;PMS5003;22478;51.740;-1.314;2023-02-05T13:01:41;4;2;
36453;PMS5003;22478;51.740;-1.314;2023-02-05T13:04:22;2;2;
36453;PMS5003;22478;51.740;-1.314;2023-02-05T13:06:57;5;2;
36453;PMS5003;22478;51.740;-1.314;2023-02-05T13:09:29;3;1;
36453;PMS5003;22478;51.740;-1.314;2023-02-05T13:12:05;5;4;
36453;PMS5003;22478;51.740;-1.314;2023-02-05T13:14:38;6;2;
36453;PMS5003;22478;51.740;-1.314;2023-02-05T13:17:11;5;3;
36453;PMS5003;22478;51.740;-1.314;2023-02-05T13:19:41;16;11;
36453;PMS5003;22478;51.740;-1.314;2023-02-05T13:22:18;7;5;
36453;PMS5003;22478;51.740;-1.314;2023-02-05T13:24:48;4;3;
36453;PMS5003;22478;51.740;-1.314;2023-02-05T13:27:20;4;2;
36453;PMS5003;22478;51.740;-1.314;2023-02-05T13:29:52;5;2;
36453;PMS5003;22478;51.740;-1.314;2023-02-05T13:32:21;8;4;
36453;PMS5003;22478;51.740;-1.314;2023-02-05T13:34:50;6;5;
36453;PMS5003;22478;51.740;-1.314;2023-02-05T13:37:25;4;2;
36453;PMS5003;22478;51.740;-1.314;2023-02-05T13:41:19;25;19;
36453;PMS5003;22478;51.740;-1.314;2023-02-05T13:44:09;19;12;
36453;PMS5003;22478;51.740;-1.314;2023-02-05T13:46:52;7;7;
36453;PMS5003;22478;51.740;-1.314;2023-02-05T13:50:45;3;2;
36453;PMS5003;22478;51.740;-1.314;2023-02-05T13:53:41;5;3;
36453;PMS5003;22478;51.740;-1.314;2023-02-05T13:56:21;2;1;
36453;PMS5003;22478;51.740;-1.314;2023-02-05T13:59:01;6;4;
36453;PMS5003;22478;51.740;-1.314;2023-02-05T14:01:32;15;13;
36453;PMS5003;22478;51.740;-1.314;2023-02-05T14:04:06;9;6;
36453;PMS5003;22478;51.740;-1.314;2023-02-05T14:06:48;4;4;
36453;PMS5003;22478;51.740;-1.314;2023-02-05T14:09:32;24;18;
36453;PMS5003;22478;51.740;-1.314;2023-02-05T14:12:03;16;8;
36453;PMS5003;22478;51.740;-1.314;2023-02-05T14:14:33;3;2;
36453;PMS5003;22478;51.740;-1.314;2023-02-05T14:17:02;6;2;
36453;PMS5003;22478;51.740;-1.314;2023-02-05T14:20:42;4;2;
36453;PMS5003;22478;51.740;-1.314;2023-02-05T14:23:11;3;3;
36453;PMS5003;22478;51.740;-1.314;2023-02-05T14:25:44;2;2;
36453;PMS5003;22478;51.740;-1.314;2023-02-05T14:26:42;2;2;
36453;PMS5003;22478;51.740;-1.314;2023-02-05T14:29:36;70;52;
36453;PMS5003;22478;51.740;-1.314;2023-02-05T14:32:05;21;17;
36453;PMS5003;22478;51.740;-1.314;2023-02-05T14:34:44;44;40;
36453;PMS5003;22478;51.740;-1.314;2023-02-05T14:37:29;17;16;
36453;PMS5003;22478;51.740;-1.314;2023-02-05T14:40:33;9;6;
36453;PMS5003;22478;51.740;-1.314;2023-02-05T14:43:10;3;3;
36453;PMS5003;22478;51.740;-1.314;2023-02-05T14:45:41;6;6;
36453;PMS5003;22478;51.740;-1.314;2023-02-05T14:48:16;4;2;
36453;PMS5003;22478;51.740;-1.314;2023-02-05T14:50:58;2;2;
36453;PMS5003;22478;51.740;-1.314;2023-02-05T14:53:27;27;19;
36453;PMS5003;22478;51.740;-1.314;2023-02-05T14:55:56;18;11;
36453;PMS5003;22478;51.740;-1.314;2023-02-05T14:58:23;7;5;
36453;PMS5003;22478;51.740;-1.314;2023-02-05T15:01:28;18;14;
36453;PMS5003;22478;51.740;-1.314;2023-02-05T15:04:29;19;16;
36453;PMS5003;22478;51.740;-1.314;2023-02-05T15:07:08;4;4;
36453;PMS5003;22478;51.740;-1.314;2023-02-05T15:09:41;8;6;
36453;PMS5003;22478;51.740;-1.314;2023-02-05T15:13:16;3;2;
36453;PMS5003;22478;51.740;-1.314;2023-02-05T15:16:18;18;11;
36453;PMS5003;22478;51.740;-1.314;2023-02-05T15:18:48;10;10;
36453;PMS5003;22478;51.740;-1.314;2023-02-05T15:21:22;3;2;
36453;PMS5003;22478;51.740;-1.314;2023-02-05T15:23:52;11;8;
36453;PMS5003;22478;51.740;-1.314;2023-02-05T15:26:28;22;16;
36453;PMS5003;22478;51.740;-1.314;2023-02-05T15:29:08;13;9;
36453;PMS5003;22478;51.740;-1.314;2023-02-05T15:31:40;8;8;
36453;PMS5003;22478;51.740;-1.314;2023-02-05T15:34:19;1;1;
36453;PMS5003;22478;51.740;-1.314;2023-02-05T15:36:55;19;15;
36453;PMS5003;22478;51.740;-1.314;2023-02-05T15:39:28;26;21;
36453;PMS5003;22478;51.740;-1.314;2023-02-05T15:42:01;11;9;
36453;PMS5003;22478;51.740;-1.314;2023-02-05T15:44:35;9;7;
36453;PMS5003;22478;51.740;-1.314;2023-02-05T15:47:03;4;4;
36453;PMS5003;22478;51.740;-1.314;2023-02-05T15:49:37;10;10;
36453;PMS5003;22478;51.740;-1.314;2023-02-05T15:52:13;12;10;
36453;PMS5003;22478;51.740;-1.314;2023-02-05T15:54:43;13;10;
36453;PMS5003;22478;51.740;-1.314;2023-02-05T15:57:12;5;5;
36453;PMS5003;22478;51.740;-1.314;2023-02-05T15:59:46;8;7;
36453;PMS5003;22478;51.740;-1.314;2023-02-05T16:02:14;9;7;
36453;PMS5003;22478;51.740;-1.314;2023-02-05T16:04:50;22;20;
36453;PMS5003;22478;51.740;-1.314;2023-02-05T16:07:21;17;12;
36453;PMS5003;22478;51.740;-1.314;2023-02-05T16:09:54;10;9;
36453;PMS5003;22478;51.740;-1.314;2023-02-05T16:12:23;16;12;
36453;PMS5003;22478;51.740;-1.314;2023-02-05T16:14:59;10;9;
36453;PMS5003;22478;51.740;-1.314;2023-02-05T16:17:29;16;12;
36453;PMS5003;22478;51.740;-1.314;2023-02-05T16:20:05;13;7;
36453;PMS5003;22478;51.740;-1.314;2023-02-05T16:22:41;16;11;
36453;PMS5003;22478;51.740;-1.314;2023-02-05T16:25:14;10;10;